81FD weather

Flying H Heliport
Jupiter, Florida, United States

Public forecast

Using degrees Fahrenheit for public forecast. Weather courtesy of forecast.io.

Closest aviation weather report (METAR) to Flying H Heliport

Closest report is Palm Beach International Airport, 15.1 nm (28.0 km) SSE. Retrieved 2019/10/14 11:23 UTC (19 minutes ago):

KPBI 141123Z 08007KT 10SM -RA BKN027TCU BKN039 BKN055 25/23 A3004 RMK AO2 RAB19 TCU E-SE P0000 T02500228

Closest aviation forecast (TAF) to Flying H Heliport

Closest forecast is Palm Beach International Airport, 15.1 nm (28.0 km) SSE. Retrieved 2019/10/14 06:26 UTC (5 hours ago):

TAF KPBI 140522Z 1406/1506 11007KT P6SM SCT030 SCT060 BKN250 FM141500 10011KT P6SM SCT025 BKN035 FM150000 09006KT P6SM FEW030 SCT060